Time;durP1;ratioP1;P1;durP2;ratioP2;P2;SDS_P1;SDS_P2;PMS_P1;PMS_P2;Temp;Humidity;BMP_temperature;BMP_pressure;BME280_temperature;BME280_humidity;BME280_pressure;Samples;Min_cycle;Max_cycle;Signal;HPM_P1;HPM_P2
2022/11/12 00:02:09;;;;;;;27.08;18.23;;;21.20;62.40;;;;;;5017600;28;20514;-72
2022/11/12 00:04:54;;;;;;;24.33;17.67;;;21.20;62.40;;;;;;5015839;28;20475;-71
2022/11/12 00:07:38;;;;;;;27.05;17.55;;;21.20;62.50;;;;;;5031012;28;20017;-72
2022/11/12 00:10:23;;;;;;;25.17;17.15;;;21.20;62.50;;;;;;5021060;28;20511;-71
2022/11/12 00:13:07;;;;;;;24.85;17.52;;;21.10;62.40;;;;;;5030695;28;20034;-72
2022/11/12 00:15:51;;;;;;;22.95;17.35;;;21.20;62.50;;;;;;5027142;28;20152;-71
2022/11/12 00:18:36;;;;;;;24.20;16.98;;;21.10;62.50;;;;;;5012274;28;20025;-71
2022/11/12 00:21:20;;;;;;;23.92;17.25;;;21.20;62.60;;;;;;5011405;28;20044;-71
2022/11/12 00:24:05;;;;;;;26.90;17.58;;;21.20;62.60;;;;;;5010843;28;20032;-72
2022/11/12 00:26:49;;;;;;;22.77;16.77;;;21.20;62.60;;;;;;5010864;28;20484;-72
2022/11/12 00:29:33;;;;;;;23.30;16.45;;;21.20;62.60;;;;;;5019450;28;20422;-72
2022/11/12 00:32:18;;;;;;;22.90;16.25;;;21.20;62.60;;;;;;5029099;28;20025;-72
2022/11/12 00:35:04;;;;;;;22.10;16.17;;;21.20;62.70;;;;;;5030743;28;20107;-72
2022/11/12 00:37:53;;;;;;;22.13;15.73;;;21.10;62.60;;;;;;5030666;28;20033;-72
2022/11/12 00:40:38;;;;;;;20.85;15.55;;;21.10;62.70;;;;;;5029967;28;20033;-72
2022/11/12 00:43:23;;;;;;;25.00;16.45;;;21.10;62.70;;;;;;5025680;28;20025;-72
2022/11/12 00:46:07;;;;;;;23.48;15.88;;;21.10;62.70;;;;;;5022335;28;20037;-72
2022/11/12 00:48:52;;;;;;;22.20;15.35;;;21.20;62.70;;;;;;5030802;28;20088;-72
2022/11/12 00:51:37;;;;;;;24.83;15.55;;;21.10;62.70;;;;;;5030776;28;20025;-72
2022/11/12 00:54:21;;;;;;;25.45;16.40;;;21.10;62.70;;;;;;5030395;28;20495;-72
2022/11/12 00:57:05;;;;;;;23.42;15.35;;;21.20;62.70;;;;;;5028543;28;20022;-72
2022/11/12 00:59:50;;;;;;;20.92;15.07;;;21.20;62.70;;;;;;5022235;28;20160;-71
2022/11/12 01:02:34;;;;;;;21.40;16.08;;;21.20;62.70;;;;;;5030131;28;20033;-72
2022/11/12 01:05:19;;;;;;;21.45;14.85;;;21.20;62.70;;;;;;5015500;28;20411;-72
2022/11/12 01:08:03;;;;;;;21.00;15.30;;;21.20;62.70;;;;;;5020051;28;20022;-71
2022/11/12 01:10:48;;;;;;;22.98;15.32;;;21.20;62.70;;;;;;5002267;28;20068;-72
2022/11/12 01:13:32;;;;;;;26.33;15.50;;;21.20;62.70;;;;;;5002961;28;20129;-73
2022/11/12 01:16:20;;;;;;;24.20;15.63;;;21.20;62.60;;;;;;5032168;23;20041;-73
2022/11/12 01:19:08;;;;;;;20.50;14.35;;;21.20;63.10;;;;;;5043478;28;20044;-73
2022/11/12 01:21:53;;;;;;;21.88;14.63;;;21.20;63.20;;;;;;5054335;28;20120;-72
2022/11/12 01:24:37;;;;;;;21.75;15.27;;;21.30;63.60;;;;;;5049403;28;20029;-72
2022/11/12 01:27:22;;;;;;;41.08;28.45;;;21.30;64.40;;;;;;5053400;28;20110;-72
2022/11/12 01:30:07;;;;;;;109.65;98.05;;;21.30;64.50;;;;;;5062691;28;20029;-72
2022/11/12 01:32:51;;;;;;;116.95;104.63;;;21.30;64.40;;;;;;5073591;28;20086;-73
2022/11/12 01:35:35;;;;;;;79.75;71.28;;;21.30;64.70;;;;;;5063726;28;20437;-73
2022/11/12 01:38:20;;;;;;;75.85;67.20;;;21.30;64.80;;;;;;5042617;28;20032;-73
2022/11/12 01:41:05;;;;;;;57.03;47.95;;;21.40;65.20;;;;;;5053227;28;20644;-73
2022/11/12 01:44:12;;;;;;;57.17;47.97;;;21.40;64.70;;;;;;5064792;28;20031;-72
2022/11/12 01:47:02;;;;;;;56.97;47.20;;;21.30;65.00;;;;;;5061189;28;20040;-73
2022/11/12 01:50:06;;;;;;;53.78;43.20;;;21.40;64.90;;;;;;5057932;28;20082;-73
2022/11/12 01:52:59;;;;;;;52.92;43.22;;;21.40;64.50;;;;;;5057581;28;20021;-73
2022/11/12 01:55:43;;;;;;;45.72;37.83;;;21.40;63.90;;;;;;5030653;28;20039;-75
2022/11/12 01:58:31;;;;;;;54.30;42.67;;;21.30;63.50;;;;;;5052011;28;20048;-74
2022/11/12 02:01:15;;;;;;;67.63;51.13;;;21.30;63.00;;;;;;5052253;28;20024;-77
2022/11/12 02:03:59;;;;;;;56.95;44.17;;;21.20;60.70;;;;;;5045638;28;20426;-73
2022/11/12 02:06:45;;;;;;;49.42;37.83;;;21.10;58.10;;;;;;5052154;28;20035;-73
2022/11/12 02:09:30;;;;;;;51.85;38.53;;;21.10;57.00;;;;;;5066247;28;20029;-73
2022/11/12 02:13:56;;;;;;;48.70;39.10;;;21.10;57.80;;;;;;5049660;28;20049;-73
2022/11/12 02:15:19;;;;;;;49.05;37.72;;;21.10;58.50;;;;;;5052761;28;20522;-74
2022/11/12 02:18:04;;;;;;;46.95;37.75;;;21.10;59.00;;;;;;5049396;28;20094;-74
2022/11/12 02:20:56;;;;;;;46.00;36.95;;;21.10;59.30;;;;;;5051411;28;20549;-78
2022/11/12 02:23:41;;;;;;;46.67;37.28;;;21.20;59.80;;;;;;5054491;28;20114;-75
2022/11/12 02:26:28;;;;;;;46.65;36.08;;;21.20;60.00;;;;;;5058420;28;20250;-76
2022/11/12 02:29:13;;;;;;;46.38;36.58;;;21.20;60.60;;;;;;5049460;28;20024;-74
2022/11/12 02:31:57;;;;;;;43.20;35.20;;;21.20;60.90;;;;;;5048238;28;20029;-74
2022/11/12 02:34:41;;;;;;;52.38;36.72;;;21.20;61.00;;;;;;5052987;28;20031;-72
2022/11/12 02:37:26;;;;;;;49.08;34.47;;;21.20;61.10;;;;;;5055417;28;20574;-72
2022/11/12 02:40:10;;;;;;;44.78;35.25;;;21.20;61.40;;;;;;5059248;28;20028;-73
2022/11/12 02:42:55;;;;;;;56.70;36.08;;;21.20;61.10;;;;;;5049623;28;20064;-72
2022/11/12 02:45:39;;;;;;;50.97;35.83;;;21.20;61.30;;;;;;5038216;28;20079;-73
2022/11/12 02:48:23;;;;;;;47.33;34.58;;;21.20;61.40;;;;;;5071377;28;20082;-73
2022/11/12 02:51:07;;;;;;;47.45;34.28;;;21.20;61.70;;;;;;5057985;28;20032;-72
2022/11/12 02:53:52;;;;;;;45.65;34.15;;;21.20;61.70;;;;;;5069186;28;20051;-72
2022/11/12 02:56:36;;;;;;;47.90;34.47;;;21.20;61.70;;;;;;5050699;28;20032;-72
2022/11/12 02:59:21;;;;;;;48.45;33.78;;;21.20;61.80;;;;;;5059174;28;20025;-73
2022/11/12 03:02:05;;;;;;;44.35;33.00;;;21.30;61.90;;;;;;5063331;28;20396;-72
2022/11/12 03:04:49;;;;;;;44.15;34.50;;;21.20;61.90;;;;;;5052719;28;20032;-73
2022/11/12 03:07:34;;;;;;;42.03;31.98;;;21.20;61.90;;;;;;5059998;28;20039;-72
2022/11/12 03:10:18;;;;;;;45.65;33.45;;;21.20;62.00;;;;;;5059862;28;20650;-72
2022/11/12 03:13:03;;;;;;;43.33;33.53;;;21.20;62.10;;;;;;5063298;28;20028;-73
2022/11/12 03:15:47;;;;;;;43.05;32.90;;;21.20;62.20;;;;;;5062390;28;20380;-73
2022/11/12 03:18:32;;;;;;;39.28;31.05;;;21.20;62.20;;;;;;5032064;28;20021;-72
2022/11/12 03:21:17;;;;;;;41.08;32.47;;;21.20;62.40;;;;;;5044433;28;20018;-72
2022/11/12 03:24:01;;;;;;;38.05;30.80;;;21.20;62.30;;;;;;5040077;28;20037;-72
2022/11/12 03:26:46;;;;;;;42.90;31.65;;;21.20;62.90;;;;;;5059527;28;20037;-72
2022/11/12 03:29:30;;;;;;;39.42;29.63;;;21.20;62.40;;;;;;5054103;28;20482;-73
2022/11/12 03:32:14;;;;;;;37.60;30.58;;;21.20;62.40;;;;;;5062945;28;20048;-72
2022/11/12 03:34:59;;;;;;;37.67;30.15;;;21.20;62.40;;;;;;5065153;28;20498;-72
2022/11/12 03:37:43;;;;;;;37.55;30.50;;;21.20;62.50;;;;;;5058841;28;20046;-72
2022/11/12 03:40:28;;;;;;;39.42;29.38;;;21.20;62.50;;;;;;5042109;28;20124;-72
2022/11/12 03:43:13;;;;;;;45.33;30.90;;;21.20;62.60;;;;;;5050725;28;20060;-73
2022/11/12 03:45:57;;;;;;;36.15;28.80;;;21.20;62.70;;;;;;5055166;28;20446;-73
2022/11/12 03:48:42;;;;;;;34.35;27.73;;;21.20;62.60;;;;;;5033258;28;20455;-73
2022/11/12 03:51:26;;;;;;;35.65;27.73;;;21.20;62.70;;;;;;5057455;28;20029;-73
2022/11/12 03:54:11;;;;;;;35.95;28.70;;;21.20;62.90;;;;;;5058769;28;20078;-73
2022/11/12 03:56:55;;;;;;;38.03;27.42;;;21.20;63.00;;;;;;5070791;28;20021;-73
2022/11/12 03:59:39;;;;;;;36.40;28.30;;;21.20;63.00;;;;;;5065338;28;20028;-72
2022/11/12 04:02:25;;;;;;;37.03;28.05;;;21.20;63.00;;;;;;5062379;28;20115;-73
2022/11/12 04:08:37;;;;;;;37.25;27.55;;;21.20;63.00;;;;;;5063673;28;20479;-73
2022/11/12 04:11:21;;;;;;;33.97;27.23;;;21.20;63.10;;;;;;5066704;28;20052;-73
2022/11/12 04:14:06;;;;;;;37.63;27.67;;;21.20;63.00;;;;;;5049675;28;20024;-73
2022/11/12 04:22:57;;;;;;;34.78;26.42;;;21.20;63.20;;;;;;5040802;28;20036;-73
2022/11/12 04:30:14;;;;;;;36.33;26.13;;;21.20;63.20;;;;;;5069482;28;20536;-73
2022/11/12 04:31:48;;;;;;;34.55;26.02;;;21.20;63.50;;;;;;5053357;28;20087;-73
2022/11/12 04:34:33;;;;;;;32.88;25.67;;;21.20;63.60;;;;;;5053431;28;20078;-73
2022/11/12 04:37:18;;;;;;;33.45;25.92;;;21.20;63.60;;;;;;5062107;28;20113;-73
2022/11/12 04:44:58;;;;;;;30.73;24.23;;;21.20;63.40;;;;;;5043759;28;20029;-72
2022/11/12 04:46:14;;;;;;;33.40;25.27;;;21.20;63.70;;;;;;5059495;28;20454;-73
2022/11/12 04:48:58;;;;;;;31.55;24.75;;;21.20;63.70;;;;;;5061260;28;20025;-73
2022/11/12 04:54:46;;;;;;;32.90;24.55;;;21.10;63.60;;;;;;5052605;28;20079;-73
2022/11/12 04:57:31;;;;;;;30.50;23.17;;;21.20;63.60;;;;;;5056190;28;20449;-73
2022/11/12 05:00:16;;;;;;;30.83;23.25;;;21.20;63.70;;;;;;5067182;28;20052;-72
2022/11/12 05:03:00;;;;;;;29.38;23.48;;;21.20;63.80;;;;;;5051139;28;20036;-73
2022/11/12 05:05:45;;;;;;;32.60;23.42;;;21.20;63.80;;;;;;5050046;28;20026;-73
2022/11/12 05:08:29;;;;;;;33.13;24.38;;;21.20;63.80;;;;;;5043676;28;20096;-72
2022/11/12 05:11:14;;;;;;;28.38;21.88;;;21.20;63.90;;;;;;5062364;28;20425;-72
2022/11/12 05:13:58;;;;;;;30.55;22.77;;;21.20;63.80;;;;;;5064290;28;20044;-73
2022/11/12 05:16:43;;;;;;;28.40;21.52;;;21.20;63.80;;;;;;5061112;28;20402;-73
2022/11/12 05:19:28;;;;;;;27.38;21.17;;;21.20;63.70;;;;;;5062518;28;20039;-73
2022/11/12 05:22:12;;;;;;;29.65;22.60;;;21.20;63.70;;;;;;5064442;28;20478;-72
2022/11/12 05:24:56;;;;;;;31.67;22.17;;;21.30;63.80;;;;;;5061301;28;20033;-72
2022/11/12 05:27:41;;;;;;;27.35;21.65;;;21.20;63.80;;;;;;5025782;28;20036;-73
2022/11/12 05:30:25;;;;;;;30.42;21.83;;;21.20;63.80;;;;;;5072736;28;20017;-73
2022/11/12 05:33:10;;;;;;;29.98;22.40;;;21.20;63.80;;;;;;5063244;28;20055;-73
2022/11/12 05:35:57;;;;;;;32.00;20.35;;;21.20;63.90;;;;;;5033454;28;20029;-72
2022/11/12 05:38:41;;;;;;;27.35;20.70;;;21.20;63.90;;;;;;5031967;28;20041;-73
2022/11/12 05:41:26;;;;;;;32.00;21.38;;;21.20;64.10;;;;;;5065025;28;20075;-73
2022/11/12 05:44:10;;;;;;;26.60;20.55;;;21.20;64.10;;;;;;5052016;28;20028;-72
2022/11/12 05:46:55;;;;;;;30.33;22.00;;;21.20;64.20;;;;;;5066076;28;20421;-73
2022/11/12 05:49:39;;;;;;;26.60;20.98;;;21.20;64.20;;;;;;5061452;28;20104;-73
2022/11/12 05:52:24;;;;;;;29.65;20.17;;;21.20;64.20;;;;;;5069858;28;20039;-73
2022/11/12 05:55:08;;;;;;;26.90;20.25;;;21.20;64.20;;;;;;5062385;28;20025;-73
2022/11/12 05:57:53;;;;;;;26.67;20.27;;;21.20;64.10;;;;;;5067104;28;20122;-73
2022/11/12 06:00:40;;;;;;;27.08;20.45;;;21.20;64.30;;;;;;5041715;28;20565;-73
2022/11/12 06:03:25;;;;;;;26.30;18.60;;;21.20;64.60;;;;;;5042785;28;20017;-73
2022/11/12 06:06:09;;;;;;;26.15;18.98;;;21.20;64.70;;;;;;5065203;28;20505;-73
2022/11/12 06:08:54;;;;;;;23.70;18.02;;;21.10;64.30;;;;;;5066684;28;20029;-73
2022/11/12 06:11:38;;;;;;;27.23;19.48;;;21.10;64.40;;;;;;5059388;28;20078;-72
2022/11/12 06:14:23;;;;;;;23.33;18.10;;;21.20;64.50;;;;;;5063981;28;20454;-73
2022/11/12 06:17:07;;;;;;;25.58;18.98;;;21.10;64.40;;;;;;5060986;28;20028;-73
2022/11/12 06:19:52;;;;;;;25.45;18.02;;;21.20;64.60;;;;;;5066661;28;20114;-73
2022/11/12 06:22:36;;;;;;;25.42;19.25;;;21.20;64.60;;;;;;5032566;28;20044;-73
2022/11/12 06:25:21;;;;;;;25.08;19.00;;;21.20;64.60;;;;;;5062176;28;20043;-73
2022/11/12 06:28:05;;;;;;;26.02;19.23;;;21.20;64.30;;;;;;5053707;28;20364;-72
2022/11/12 06:30:49;;;;;;;24.27;18.17;;;21.20;64.30;;;;;;5064678;28;20024;-73
2022/11/12 06:33:34;;;;;;;25.92;18.63;;;21.20;64.30;;;;;;5058404;28;20497;-73
2022/11/12 06:36:19;;;;;;;24.77;17.63;;;21.20;64.20;;;;;;5061523;28;20025;-73
2022/11/12 06:39:03;;;;;;;24.88;17.65;;;21.20;64.30;;;;;;5048389;28;20040;-73
2022/11/12 06:41:48;;;;;;;23.92;17.70;;;21.20;64.40;;;;;;5051783;28;20116;-73
2022/11/12 06:44:32;;;;;;;23.98;17.48;;;21.20;64.40;;;;;;5059881;28;20113;-73
2022/11/12 06:47:16;;;;;;;22.17;17.15;;;21.20;64.50;;;;;;5070639;28;20024;-73
2022/11/12 06:50:01;;;;;;;26.45;18.25;;;21.20;64.60;;;;;;5063719;28;20036;-73
2022/11/12 06:52:45;;;;;;;23.90;17.65;;;21.20;64.60;;;;;;5063064;28;20070;-73
2022/11/12 06:55:30;;;;;;;23.67;16.60;;;21.20;65.00;;;;;;5052117;28;20028;-73
2022/11/12 06:58:14;;;;;;;24.95;17.80;;;21.20;64.80;;;;;;5052879;28;20074;-73
2022/11/12 07:01:13;;;;;;;21.38;16.45;;;21.20;64.70;;;;;;5063785;28;20037;-73
2022/11/12 07:03:57;;;;;;;23.23;16.98;;;21.20;65.00;;;;;;5062674;28;20025;-73
2022/11/12 07:06:42;;;;;;;22.08;16.52;;;21.20;64.70;;;;;;5059940;28;20487;-73
2022/11/12 07:09:26;;;;;;;25.50;16.58;;;21.20;65.20;;;;;;5061300;28;20025;-73
2022/11/12 07:12:10;;;;;;;23.23;15.48;;;21.20;64.90;;;;;;5069232;28;20024;-73
2022/11/12 07:14:55;;;;;;;23.25;16.23;;;21.10;65.00;;;;;;5059927;28;20501;-73
2022/11/12 07:17:43;;;;;;;22.52;15.85;;;21.20;65.00;;;;;;5045784;23;20148;-73
2022/11/12 07:20:27;;;;;;;22.90;15.85;;;21.10;65.30;;;;;;5036795;28;20077;-72
2022/11/12 07:23:11;;;;;;;20.63;14.52;;;21.20;65.10;;;;;;5034040;28;20025;-72
2022/11/12 07:25:56;;;;;;;22.65;15.77;;;21.20;65.10;;;;;;5027162;28;20568;-73
2022/11/12 07:28:41;;;;;;;20.33;15.10;;;21.20;65.30;;;;;;5024838;28;20033;-73
2022/11/12 07:31:25;;;;;;;21.48;14.75;;;21.20;64.80;;;;;;5043265;28;20025;-73
2022/11/12 07:34:10;;;;;;;23.63;15.32;;;21.20;65.20;;;;;;5041641;28;20029;-72
2022/11/12 07:36:54;;;;;;;19.25;14.55;;;21.20;65.10;;;;;;5039837;28;20042;-73
2022/11/12 07:39:39;;;;;;;22.10;14.48;;;21.20;64.80;;;;;;5013620;28;20028;-73
2022/11/12 07:42:23;;;;;;;23.23;15.40;;;21.20;65.10;;;;;;5039853;28;20029;-73
2022/11/12 07:45:08;;;;;;;23.48;14.55;;;21.20;65.10;;;;;;5037033;28;20036;-73
2022/11/12 07:47:52;;;;;;;20.60;14.32;;;21.20;65.10;;;;;;5045285;28;20075;-72
2022/11/12 07:50:36;;;;;;;20.92;14.82;;;21.20;64.60;;;;;;5025027;28;20075;-73
2022/11/12 07:53:21;;;;;;;26.02;14.68;;;21.20;64.70;;;;;;5049040;28;20545;-73
2022/11/12 07:56:06;;;;;;;22.02;14.38;;;21.20;65.40;;;;;;5047898;28;20029;-73
2022/11/12 07:58:51;;;;;;;26.20;14.10;;;21.20;65.20;;;;;;5045875;28;20033;-73
2022/11/12 08:01:37;;;;;;;19.02;13.15;;;21.20;65.00;;;;;;5040607;28;20036;-73
2022/11/12 08:04:21;;;;;;;22.77;13.85;;;21.20;64.70;;;;;;4998297;28;20025;-73
2022/11/12 08:07:06;;;;;;;22.20;14.35;;;21.20;64.70;;;;;;5034224;28;20503;-73
2022/11/12 08:09:50;;;;;;;22.20;14.20;;;21.20;64.60;;;;;;5004565;28;20459;-73
2022/11/12 08:12:35;;;;;;;20.70;12.93;;;21.20;64.60;;;;;;4996011;28;20109;-73
2022/11/12 08:15:19;;;;;;;25.55;13.38;;;21.20;64.80;;;;;;5011310;28;20484;-73
2022/11/12 08:18:03;;;;;;;19.85;13.10;;;21.20;65.00;;;;;;5035358;28;20034;-73
2022/11/12 08:20:48;;;;;;;22.08;13.40;;;21.20;65.10;;;;;;5034191;28;20029;-72
2022/11/12 08:23:32;;;;;;;19.75;13.45;;;21.20;64.90;;;;;;5042563;28;20075;-73
2022/11/12 08:26:19;;;;;;;19.23;13.20;;;21.20;64.70;;;;;;5035743;28;20018;-73
2022/11/12 08:29:04;;;;;;;20.98;13.05;;;21.20;64.90;;;;;;5035311;28;20091;-73
2022/11/12 08:31:48;;;;;;;20.80;13.57;;;21.20;64.80;;;;;;5044128;28;20483;-73
2022/11/12 08:34:34;;;;;;;22.02;13.63;;;21.20;65.30;;;;;;5035343;28;20033;-73
2022/11/12 08:37:19;;;;;;;19.58;12.90;;;21.20;65.20;;;;;;5040292;28;20048;-73
2022/11/12 08:40:03;;;;;;;19.67;12.70;;;21.20;64.90;;;;;;5046539;28;20495;-73
2022/11/12 08:42:55;;;;;;;19.63;13.23;;;21.20;65.10;;;;;;5040388;28;20030;-73
2022/11/12 08:45:40;;;;;;;20.80;12.98;;;21.20;65.80;;;;;;5014465;28;20061;-73
2022/11/12 08:48:26;;;;;;;19.73;12.85;;;21.20;65.20;;;;;;5030341;28;20027;-73
2022/11/12 08:51:11;;;;;;;19.02;12.80;;;21.20;65.00;;;;;;5049826;28;20017;-73
2022/11/12 08:53:55;;;;;;;27.92;12.88;;;21.20;64.80;;;;;;5044998;28;20478;-73
2022/11/12 08:56:39;;;;;;;19.02;12.68;;;21.20;64.80;;;;;;5027390;28;20590;-73
2022/11/12 08:59:24;;;;;;;17.92;12.05;;;21.20;64.80;;;;;;5046439;28;20445;-73
2022/11/12 09:02:12;;;;;;;19.15;12.90;;;21.20;64.70;;;;;;5043292;28;20380;-73
2022/11/12 09:04:57;;;;;;;20.33;12.43;;;21.30;64.90;;;;;;5032326;28;20047;-74
2022/11/12 09:07:41;;;;;;;20.35;12.55;;;21.30;65.30;;;;;;5040501;28;20423;-73
2022/11/12 09:10:26;;;;;;;20.48;11.98;;;21.20;65.30;;;;;;5041414;28;20605;-73
2022/11/12 09:13:12;;;;;;;18.80;12.30;;;21.30;65.00;;;;;;5042970;28;20394;-73
2022/11/12 09:16:02;;;;;;;19.02;12.10;;;21.30;65.10;;;;;;5044468;28;20075;-73
2022/11/12 09:18:47;;;;;;;17.17;11.82;;;21.30;65.00;;;;;;5040900;28;20511;-73
2022/11/12 09:21:31;;;;;;;17.55;11.57;;;21.20;64.80;;;;;;5027643;28;20123;-74
2022/11/12 09:24:15;;;;;;;17.20;11.48;;;21.20;65.20;;;;;;5041232;28;20475;-73
2022/11/12 09:27:00;;;;;;;19.60;11.30;;;21.30;65.10;;;;;;5035861;28;20037;-73
2022/11/12 09:29:45;;;;;;;17.63;11.57;;;21.20;65.00;;;;;;5054039;28;20338;-73
2022/11/12 09:32:29;;;;;;;17.85;11.75;;;21.20;64.90;;;;;;5039553;28;20033;-73
2022/11/12 09:35:14;;;;;;;17.13;11.43;;;21.30;65.00;;;;;;5051839;28;20024;-73
2022/11/12 09:37:58;;;;;;;18.50;12.15;;;21.20;64.90;;;;;;5041048;28;20058;-73
2022/11/12 09:40:51;;;;;;;21.02;11.57;;;21.20;65.00;;;;;;5017791;28;20025;-73
2022/11/12 09:43:42;;;;;;;17.77;11.13;;;21.30;65.20;;;;;;5011941;28;20636;-73
2022/11/12 09:46:41;;;;;;;18.38;11.00;;;21.20;65.00;;;;;;5041881;28;20509;-73
2022/11/12 09:49:46;;;;;;;15.77;11.07;;;21.20;65.80;;;;;;5026005;28;20480;-73
2022/11/12 09:52:30;;;;;;;18.27;11.40;;;21.20;65.40;;;;;;5036979;28;20165;-74
2022/11/12 09:55:21;;;;;;;16.67;11.38;;;21.20;65.20;;;;;;5033233;28;20086;-73
2022/11/12 09:58:11;;;;;;;17.83;11.25;;;21.30;65.30;;;;;;5029563;28;20067;-73
2022/11/12 10:01:01;;;;;;;15.88;10.73;;;21.30;65.20;;;;;;5013666;28;20520;-73
2022/11/12 10:04:24;;;;;;;16.73;11.68;;;21.30;65.50;;;;;;5035226;28;20104;-73
2022/11/12 10:07:15;;;;;;;17.08;10.60;;;21.30;65.70;;;;;;5033478;28;20044;-73
2022/11/12 10:10:14;;;;;;;16.83;11.00;;;21.30;66.80;;;;;;5049750;28;20059;-73
2022/11/12 10:13:19;;;;;;;15.50;10.40;;;21.30;65.60;;;;;;5034175;28;20030;-73
2022/11/12 10:19:49;;;;;;;21.33;11.25;;;21.30;65.50;;;;;;5035687;28;20048;-73
2022/11/12 10:22:50;;;;;;;17.10;10.93;;;21.30;65.50;;;;;;5030539;28;20040;-74
2022/11/12 10:25:36;;;;;;;19.08;10.65;;;21.30;67.10;;;;;;5028304;28;20037;-74
2022/11/12 10:28:32;;;;;;;22.83;10.73;;;21.30;66.20;;;;;;5027764;28;20129;-74
2022/11/12 10:31:19;;;;;;;18.90;10.77;;;21.30;66.00;;;;;;5032112;28;20079;-75
2022/11/12 10:34:16;;;;;;;18.52;10.35;;;21.30;65.80;;;;;;5013161;28;20494;-72
2022/11/12 10:37:05;;;;;;;18.08;9.43;;;21.30;65.30;;;;;;5032429;28;20021;-72
2022/11/12 10:39:49;;;;;;;17.60;8.83;;;21.20;61.10;;;;;;5032629;28;20025;-72
2022/11/12 10:42:34;;;;;;;17.38;8.80;;;21.10;58.80;;;;;;5038916;28;20539;-71
2022/11/12 10:45:21;;;;;;;30.65;8.38;;;21.00;57.50;;;;;;5047187;28;20054;-71
2022/11/12 10:48:28;;;;;;;20.55;7.95;;;20.90;59.30;;;;;;5030184;28;20045;-73
2022/11/12 10:51:25;;;;;;;22.45;8.02;;;21.00;58.30;;;;;;5003767;28;20384;-73
2022/11/12 10:54:19;;;;;;;14.63;6.70;;;21.00;59.50;;;;;;5005998;28;20388;-73
2022/11/12 10:57:24;;;;;;;22.48;7.63;;;21.00;59.90;;;;;;5040322;28;20451;-73
2022/11/12 11:00:12;;;;;;;20.40;6.93;;;21.10;61.20;;;;;;5037687;28;20021;-73
2022/11/12 11:02:56;;;;;;;15.70;6.70;;;21.20;62.50;;;;;;5048241;28;20032;-73
2022/11/12 11:05:58;;;;;;;38.25;22.40;;;21.20;64.80;;;;;;5039867;28;20082;-73
2022/11/12 11:08:46;;;;;;;45.33;26.92;;;21.30;66.10;;;;;;5036056;28;20033;-73
2022/11/12 11:11:30;;;;;;;53.72;36.08;;;21.40;65.40;;;;;;5028831;28;20029;-74
2022/11/12 11:14:21;;;;;;;39.67;26.02;;;21.50;66.60;;;;;;5020375;28;20075;-73
2022/11/12 11:17:14;;;;;;;33.60;18.05;;;21.50;66.00;;;;;;5041651;28;20040;-75
2022/11/12 11:19:59;;;;;;;36.83;18.50;;;21.50;65.80;;;;;;5042018;28;20429;-75
2022/11/12 11:22:49;;;;;;;27.77;16.23;;;21.60;66.50;;;;;;5014227;28;20113;-84
2022/11/12 11:25:36;;;;;;;46.53;33.10;;;21.50;64.50;;;;;;4997257;28;20026;-84
2022/11/12 11:28:42;;;;;;;75.82;52.92;;;21.40;66.30;;;;;;5037518;28;20093;-78
2022/11/12 11:31:45;;;;;;;46.00;29.70;;;21.20;59.90;;;;;;5031406;28;20115;-83
2022/11/12 11:34:54;;;;;;;28.95;15.63;;;21.00;57.30;;;;;;5060638;28;20109;-85
2022/11/12 11:38:10;;;;;;;22.55;11.15;;;21.00;56.10;;;;;;5037080;28;20025;-85
2022/11/12 11:41:00;;;;;;;21.50;9.18;;;20.90;55.80;;;;;;5024506;28;20040;-79
2022/11/12 11:43:59;;;;;;;21.15;8.65;;;20.80;55.40;;;;;;5042963;28;20041;-79
2022/11/12 11:46:50;;;;;;;26.88;9.40;;;20.80;55.10;;;;;;5040505;28;20585;-79
2022/11/12 11:49:49;;;;;;;18.23;7.88;;;20.70;55.20;;;;;;5030651;28;20037;-79
2022/11/12 11:52:45;;;;;;;22.40;8.50;;;20.70;55.70;;;;;;5042615;28;20044;-81
2022/11/12 11:55:48;;;;;;;22.05;8.48;;;20.80;56.20;;;;;;5041159;28;20033;-81
2022/11/12 11:58:57;;;;;;;19.17;8.35;;;20.90;56.60;;;;;;5040124;28;20057;-79
2022/11/12 12:01:54;;;;;;;18.63;8.27;;;20.90;56.50;;;;;;5036863;28;20032;-78
2022/11/12 12:04:47;;;;;;;20.90;7.80;;;21.00;57.50;;;;;;5036705;28;20045;-79
2022/11/12 12:08:15;;;;;;;19.52;8.23;;;21.00;58.20;;;;;;5040547;28;20391;-81
2022/11/12 12:11:13;;;;;;;16.52;7.47;;;21.00;58.30;;;;;;5009176;28;20091;-80
2022/11/12 12:14:19;;;;;;;19.45;7.68;;;21.10;58.40;;;;;;5040772;28;20231;-81
2022/11/12 12:17:29;;;;;;;19.75;7.47;;;21.10;58.50;;;;;;5016174;28;20033;-83
2022/11/12 12:20:24;;;;;;;;;;;21.10;59.30;;;;;;5014909;28;20124;-77
2022/11/12 12:23:17;;;;;;;17.48;6.72;;;21.10;60.10;;;;;;5012424;28;19910;-77
2022/11/12 12:26:12;;;;;;;13.35;6.10;;;21.10;58.60;;;;;;5023600;28;20032;-75
2022/11/12 12:29:09;;;;;;;17.85;6.28;;;21.00;58.00;;;;;;5019560;28;20087;-76
2022/11/12 12:32:19;;;;;;;16.02;6.22;;;20.90;55.90;;;;;;5040190;28;20021;-73
2022/11/12 12:35:15;;;;;;;23.13;7.68;;;20.90;56.20;;;;;;5048460;28;20028;-73
2022/11/12 12:38:02;;;;;;;16.23;7.72;;;20.80;54.80;;;;;;5053170;28;20048;-72
2022/11/12 12:41:00;;;;;;;16.92;8.18;;;20.80;54.70;;;;;;5028748;28;20117;-73
2022/11/12 12:43:51;;;;;;;18.63;8.00;;;20.70;54.40;;;;;;5026443;28;20037;-72
2022/11/12 12:46:52;;;;;;;17.80;7.32;;;20.70;54.30;;;;;;5025405;28;20034;-73
2022/11/12 12:49:38;;;;;;;16.08;7.63;;;20.70;54.30;;;;;;5025560;28;20023;-73
2022/11/12 12:52:23;;;;;;;16.55;7.10;;;20.60;54.00;;;;;;5056816;28;20036;-74
2022/11/12 12:55:41;;;;;;;16.33;7.53;;;20.60;54.70;;;;;;5059296;28;20056;-74
2022/11/12 12:58:46;;;;;;;17.67;7.70;;;20.60;54.10;;;;;;5046289;28;20036;-74
2022/11/12 13:01:33;;;;;;;16.42;7.32;;;20.60;54.20;;;;;;5038437;28;20034;-73
2022/11/12 13:04:51;;;;;;;18.23;7.05;;;20.60;54.10;;;;;;5042012;28;20061;-74
2022/11/12 13:07:42;;;;;;;19.23;8.02;;;20.60;54.10;;;;;;5046614;28;20044;-73
2022/11/12 13:10:35;;;;;;;17.27;7.38;;;20.60;54.00;;;;;;5064631;28;20111;-74
2022/11/12 13:13:19;;;;;;;15.32;7.55;;;20.60;54.10;;;;;;5045294;28;20487;-73
2022/11/12 13:16:04;;;;;;;15.95;6.75;;;20.60;54.10;;;;;;5067356;28;20029;-75
2022/11/12 13:18:51;;;;;;;17.05;6.75;;;20.60;53.80;;;;;;5068559;28;20035;-75
2022/11/12 13:21:35;;;;;;;15.75;6.65;;;20.50;53.80;;;;;;5062404;28;20059;-74
2022/11/12 13:24:59;;;;;;;13.70;6.15;;;20.50;53.70;;;;;;5052533;28;20029;-75
2022/11/12 13:27:43;;;;;;;15.18;6.00;;;20.50;53.80;;;;;;5047069;28;20044;-75
2022/11/12 13:30:28;;;;;;;18.85;6.15;;;20.50;54.00;;;;;;5045203;28;20029;-75
2022/11/12 13:33:25;;;;;;;13.80;5.60;;;20.50;53.60;;;;;;5051938;28;20529;-74
2022/11/12 13:36:25;;;;;;;14.23;6.13;;;20.50;53.50;;;;;;5055607;28;20056;-75
2022/11/12 13:39:16;;;;;;;12.93;5.68;;;20.40;53.40;;;;;;5023627;28;20044;-76
2022/11/12 13:45:26;;;;;;;15.33;5.83;;;20.50;53.50;;;;;;5025004;28;20047;-73
2022/11/12 13:48:38;;;;;;;13.52;4.93;;;20.50;53.90;;;;;;5052165;28;20506;-73
2022/11/12 13:51:51;;;;;;;22.42;6.03;;;20.50;54.40;;;;;;5054867;28;20064;-80
2022/11/12 13:54:36;;;;;;;;;;;20.50;53.90;;;;;;5028599;28;20026;-78
2022/11/12 13:57:23;;;;;;;39.90;15.00;;;20.50;54.40;;;;;;5035936;28;20379;-79
2022/11/12 14:00:17;;;;;;;41.97;18.80;;;20.60;54.10;;;;;;5025993;28;20025;-77
2022/11/12 14:03:05;;;;;;;40.47;17.48;;;20.60;54.20;;;;;;5031846;28;20047;-79
2022/11/12 14:05:50;;;;;;;39.67;16.05;;;20.60;54.70;;;;;;5011293;28;20557;-79
2022/11/12 14:09:15;;;;;;;36.17;13.82;;;20.70;55.00;;;;;;5028150;28;20025;-86
2022/11/12 14:12:02;;;;;;;33.88;13.32;;;20.70;55.50;;;;;;5015270;28;20447;-76
2022/11/12 14:14:58;;;;;;;36.05;14.07;;;20.80;56.40;;;;;;4998837;28;20044;-76
2022/11/12 14:17:59;;;;;;;35.17;13.32;;;20.80;56.00;;;;;;5018933;28;20045;-77
2022/11/12 14:20:44;;;;;;;29.52;14.18;;;20.80;55.90;;;;;;5014001;28;20438;-78
2022/11/12 14:23:29;;;;;;;32.30;13.90;;;20.80;56.10;;;;;;5013828;28;20072;-78
2022/11/12 14:26:36;;;;;;;31.17;13.27;;;20.80;56.30;;;;;;5013364;28;20105;-77
2022/11/12 14:29:21;;;;;;;25.65;12.25;;;20.80;56.60;;;;;;5013880;28;20034;-77
2022/11/12 14:32:08;;;;;;;28.45;12.43;;;20.80;56.50;;;;;;5041959;28;20052;-78
2022/11/12 14:34:53;;;;;;;32.97;11.70;;;20.80;56.80;;;;;;5014824;28;20479;-77
2022/11/12 14:37:45;;;;;;;27.80;13.35;;;20.80;56.80;;;;;;5034114;28;20278;-78
2022/11/12 14:40:32;;;;;;;30.52;12.52;;;20.80;57.00;;;;;;5034406;28;20097;-78
2022/11/12 14:43:34;;;;;;;27.65;12.10;;;20.80;57.10;;;;;;5009460;28;20100;-78